| time (UTC) | temp F | wind direction | speed MPH | gust MPH | rain 1hr in | rain 24hr in | rain mn in | humidity % | barometer mb |
| 20260906110242 | 75 | 213 | 0.0 | 0.0 | 0.00 | 0.00 | 0.00 | 99 | |
| 20260906103243 | 75 | 213 | 0.0 | 0.0 | 0.00 | 0.00 | 0.00 | 99 | |
| 20260906100242 | 76 | 213 | 0.0 | 0.0 | 0.00 | 0.00 | 0.00 | 99 | |
| 20260906093243 | 76 | 213 | 0.0 | 0.0 | 0.00 | 0.00 | 0.00 | 99 | |
| 20260906090242 | 77 | 215 | 0.0 | 0.0 | 0.00 | 0.00 | 0.00 | 99 | |
| 20260906083242 | 77 | 215 | 0.0 | 0.0 | 0.00 | 0.00 | 0.00 | 99 | |
| 20260906080243 | 77 | 215 | 0.0 | 0.0 | 0.00 | 0.00 | 0.00 | 99 | |
| 20260906073242 | 77 | 215 | 0.0 | 0.0 | 0.00 | 0.00 | 0.00 | 99 | |
| 20260906070242 | 77 | 215 | 0.0 | 0.0 | 0.00 | 0.00 | 0.00 | 99 | |
| 20260906063242 | 77 | 231 | 0.0 | 0.0 | 0.00 | 0.00 | 0.00 | 99 | |
| 20260906060242 | 78 | 231 | 0.0 | 0.0 | 0.00 | 0.00 | 0.00 | 98 | |
| 20260906053242 | 78 | 231 | 0.0 | 0.0 | 0.00 | 0.00 | 0.00 | 98 | |
| 20260906050242 | 78 | 253 | 0.0 | 0.0 | 0.00 | 0.00 | 0.00 | 98 | |
| 20260906043242 | 79 | 104 | 0.0 | 0.0 | 0.00 | 0.00 | 0.00 | 97 | |
| 20260906040242 | 79 | 79 | 0.0 | 0.0 | 0.00 | 0.00 | 0.00 | 96 | |
| 20260906033242 | 79 | 199 | 0.0 | 0.0 | 0.00 | 0.00 | 0.00 | 95 | |
| 20260906030242 | 80 | 69 | 0.0 | 0.0 | 0.00 | 0.00 | 0.00 | 94 | |
| 20260906023243 | 79 | 292 | 0.0 | 0.0 | 0.00 | 0.00 | 0.00 | 94 | |
| 20260906020244 | 80 | 292 | 0.0 | 0.0 | 0.00 | 0.00 | 0.00 | 93 | |
| 20260906013243 | 81 | 292 | 0.0 | 0.0 | 0.00 | 0.00 | 0.00 | 91 | |
| 20260906010242 | 82 | 292 | 0.0 | 0.0 | 0.00 | 0.00 | 0.00 | 90 | |
| 20260906003242 | 83 | 291 | 0.0 | 0.0 | 0.00 | 0.00 | 0.00 | 89 | |
| 20260906000242 | 85 | 291 | 0.0 | 0.0 | 0.00 | 0.00 | 0.00 | 84 | |
| 20260905233242 | 86 | 59 | 0.0 | 0.0 | 0.00 | 0.00 | 0.00 | 80 | |
| 20260905230242 | 88 | 199 | 0.0 | 0.0 | 0.00 | 0.00 | 0.00 | 74 | |
| 20260905223242 | 91 | 141 | 0.0 | 0.0 | 0.00 | 0.00 | 0.00 | 72 | |
| 20260905220243 | 92 | 290 | 0.0 | 0.0 | 0.00 | 0.00 | 0.00 | 67 | |
| 20260905213242 | 94 | 237 | 0.0 | 3.0 | 0.00 | 0.00 | 0.00 | 62 | |
| 20260905210242 | 92 | 13 | 0.0 | 0.0 | 0.00 | 0.00 | 0.00 | 66 | |
| 20260905203242 | 93 | 276 | 3.0 | 3.0 | 0.00 | 0.00 | 0.00 | 63 | |
| 20260905200242 | 93 | 280 | 0.0 | 0.0 | 0.00 | 0.00 | 0.00 | 62 | |
| 20260905193242 | 92 | 295 | 3.0 | 3.0 | 0.00 | 0.00 | 0.00 | 63 | |
| 20260905190242 | 92 | 86 | 0.0 | 0.0 | 0.00 | 0.00 | 0.00 | 63 | |
| 20260905183243 | 92 | 38 | 3.0 | 3.0 | 0.00 | 0.00 | 0.00 | 65 | |
| 20260905180243 | 88 | 11 | 3.0 | 4.0 | 0.00 | 0.00 | 0.00 | 71 | |
| 20260905173242 | 89 | 250 | 5.0 | 5.0 | 0.00 | 0.00 | 0.00 | 71 | |
| 20260905170242 | 85 | 223 | 0.0 | 3.0 | 0.00 | 0.00 | 0.00 | 77 | |
| 20260905163244 | 85 | 207 | 4.0 | 5.0 | 0.00 | 0.00 | 0.00 | 78 | |
| 20260905160242 | 85 | 224 | 3.0 | 3.0 | 0.00 | 0.00 | 0.00 | 80 | |
| 20260905153244 | 85 | 274 | 3.0 | 3.0 | 0.00 | 0.00 | 0.00 | 80 | |
| 20260905150243 | 82 | 241 | 3.0 | 3.0 | 0.00 | 0.00 | 0.00 | 85 | |
| 20260905143244 | 81 | 103 | 3.0 | 3.0 | 0.00 | 0.00 | 0.00 | 86 | |
| 20260905140243 | 81 | 262 | 0.0 | 0.0 | 0.00 | 0.00 | 0.00 | 89 | |
| 20260905133243 | 80 | 191 | 0.0 | 0.0 | 0.00 | 0.00 | 0.00 | 90 | |
| 20260905130242 | 79 | 143 | 0.0 | 0.0 | 0.00 | 0.00 | 0.00 | 95 | |
| 20260905123244 | 77 | 137 | 0.0 | 0.0 | 0.00 | 0.00 | 0.00 | 98 | |
| 20260905120242 | 76 | 295 | 0.0 | 0.0 | 0.00 | 0.00 | 0.00 | 99 | |
| 20260905113243 | 76 | 230 | 0.0 | 0.0 | 0.00 | 0.00 | 0.00 | 99 |